createdAt,value
2019-02-06T00:00:45.278Z,91.85
2019-02-06T00:03:52.453Z,91.98
2019-02-06T00:06:59.699Z,91.34
2019-02-06T00:10:07.301Z,91.56
2019-02-06T00:13:14.261Z,91.11
2019-02-06T00:16:21.641Z,90.99
2019-02-06T00:19:28.629Z,91.06
2019-02-06T00:22:35.664Z,91.22
2019-02-06T00:25:43.098Z,91.29
2019-02-06T00:28:50.113Z,91.30
2019-02-06T00:31:57.001Z,91.20
2019-02-06T00:35:04.950Z,91.16
2019-02-06T00:38:12.126Z,91.01
2019-02-06T00:41:21.884Z,90.73
2019-02-06T00:44:27.944Z,90.66
2019-02-06T00:47:34.865Z,91.12
2019-02-06T00:50:41.820Z,90.76
2019-02-06T00:53:48.756Z,90.63
2019-02-06T00:56:55.643Z,90.40
2019-02-06T01:00:02.689Z,91.24
2019-02-06T01:03:10.698Z,90.13
2019-02-06T01:06:17.576Z,90.43
2019-02-06T01:09:24.841Z,88.84
2019-02-06T01:12:31.735Z,89.90
2019-02-06T01:15:38.817Z,91.13
2019-02-06T01:18:45.723Z,90.46
2019-02-06T01:21:52.798Z,90.06
2019-02-06T01:24:59.723Z,89.21
2019-02-06T01:28:06.710Z,91.16
2019-02-06T01:31:21.468Z,90.50
2019-02-06T01:34:28.497Z,91.74
2019-02-06T01:37:36.540Z,89.88
2019-02-06T01:40:43.492Z,89.30
2019-02-06T01:43:50.409Z,88.18
2019-02-06T01:46:57.439Z,87.91
2019-02-06T01:50:06.073Z,88.42
2019-02-06T01:53:13.435Z,88.33
2019-02-06T01:56:22.006Z,88.09
2019-02-06T01:59:28.958Z,88.30
2019-02-06T02:02:35.984Z,88.23
2019-02-06T02:05:43.133Z,88.66
2019-02-06T02:08:57.538Z,88.39
2019-02-06T02:12:04.737Z,88.41
2019-02-06T02:15:14.854Z,89.02
2019-02-06T02:18:25.136Z,87.67
2019-02-06T02:21:32.284Z,87.48
2019-02-06T02:24:40.991Z,86.89
2019-02-06T02:27:48.295Z,87.94
2019-02-06T02:30:56.856Z,87.61
2019-02-06T02:34:03.758Z,87.62
2019-02-06T02:37:10.979Z,88.02
2019-02-06T02:40:20.134Z,88.71
2019-02-06T02:43:27.155Z,89.13
2019-02-06T02:46:34.276Z,88.32
2019-02-06T02:49:41.287Z,88.95
2019-02-06T02:52:48.329Z,87.62
2019-02-06T02:55:55.300Z,87.76
2019-02-06T02:59:02.249Z,88.03
2019-02-06T03:02:29.123Z,88.73
2019-02-06T03:05:37.142Z,88.53
2019-02-06T03:08:44.115Z,89.49
2019-02-06T03:11:51.076Z,89.28
2019-02-06T03:14:58.060Z,88.95
2019-02-06T03:18:05.046Z,88.64
2019-02-06T03:21:12.364Z,88.69
2019-02-06T03:24:19.829Z,89.18
2019-02-06T03:27:26.830Z,88.08
2019-02-06T03:30:33.775Z,88.95
2019-02-06T03:33:40.726Z,89.21
2019-02-06T03:36:47.798Z,89.99
2019-02-06T03:39:54.770Z,90.17
2019-02-06T03:43:02.115Z,89.72
2019-02-06T03:46:09.358Z,89.05
2019-02-06T03:49:16.321Z,88.66
2019-02-06T03:52:26.390Z,87.84
2019-02-06T03:55:33.308Z,89.39
2019-02-06T03:58:40.422Z,89.31
2019-02-06T04:01:47.429Z,89.46
2019-02-06T04:04:55.495Z,90.35
2019-02-06T04:08:02.397Z,90.60
2019-02-06T04:11:09.544Z,88.65
2019-02-06T04:14:16.893Z,90.31
2019-02-06T04:17:23.937Z,89.00
2019-02-06T04:20:31.056Z,90.07
2019-02-06T04:23:40.396Z,89.53
2019-02-06T04:26:47.295Z,88.92
2019-02-06T04:29:55.558Z,90.11
2019-02-06T04:33:02.825Z,90.10
2019-02-06T04:36:09.841Z,90.99
2019-02-06T04:39:19.771Z,91.54
2019-02-06T04:42:27.333Z,90.91
2019-02-06T04:45:34.642Z,91.08
2019-02-06T04:48:41.608Z,90.76
2019-02-06T04:51:48.583Z,90.84
2019-02-06T04:54:55.874Z,90.75
2019-02-06T04:58:02.823Z,90.78
2019-02-06T05:01:09.743Z,92.57
2019-02-06T05:04:16.687Z,94.37
2019-02-06T05:07:23.853Z,93.80
2019-02-06T05:10:30.747Z,94.38
2019-02-06T05:13:38.238Z,93.39
2019-02-06T05:16:45.172Z,93.20
2019-02-06T05:19:52.296Z,94.29
2019-02-06T05:22:59.399Z,95.19
2019-02-06T05:26:06.881Z,94.00
2019-02-06T05:29:13.756Z,94.83
2019-02-06T05:32:20.783Z,94.51
2019-02-06T05:35:27.713Z,93.96
2019-02-06T05:38:35.336Z,93.45
2019-02-06T05:41:42.760Z,94.21
2019-02-06T05:44:49.909Z,94.45
2019-02-06T05:47:58.484Z,93.85
2019-02-06T05:51:05.600Z,94.42
2019-02-06T05:54:12.577Z,94.50
2019-02-06T05:57:19.730Z,94.11
2019-02-06T06:00:33.320Z,93.91
2019-02-06T06:03:40.332Z,93.51
2019-02-06T06:06:47.329Z,93.88
2019-02-06T06:09:55.221Z,93.94
2019-02-06T06:13:02.206Z,94.17
2019-02-06T06:16:09.602Z,93.37
2019-02-06T06:19:16.571Z,93.56
2019-02-06T06:22:24.632Z,92.90
2019-02-06T06:25:31.621Z,92.65
2019-02-06T06:28:38.532Z,92.66
2019-02-06T06:31:45.777Z,93.49
2019-02-06T06:34:52.965Z,93.60
2019-02-06T06:38:02.554Z,93.29
2019-02-06T06:41:08.782Z,93.82
2019-02-06T06:44:16.469Z,93.48
2019-02-06T06:47:23.475Z,93.60
2019-02-06T06:50:30.631Z,93.72
2019-02-06T06:53:37.566Z,93.63
2019-02-06T06:56:44.499Z,92.92
2019-02-06T06:59:51.611Z,93.22
2019-02-06T07:02:59.376Z,93.11
2019-02-06T07:06:06.486Z,93.44
2019-02-06T07:09:16.708Z,93.42
2019-02-06T07:12:23.695Z,93.85
2019-02-06T07:15:33.786Z,93.55
2019-02-06T07:18:40.653Z,92.72
2019-02-06T07:21:47.617Z,92.79
2019-02-06T07:24:54.586Z,92.45
2019-02-06T07:28:01.517Z,92.08
2019-02-06T07:31:08.653Z,92.32
2019-02-06T07:34:15.973Z,92.48
2019-02-06T07:37:22.881Z,92.16
2019-02-06T07:40:29.855Z,91.71
2019-02-06T07:43:36.771Z,91.70
2019-02-06T07:46:45.039Z,91.83
2019-02-06T07:49:52.084Z,91.66
2019-02-06T07:52:59.313Z,91.28
2019-02-06T07:56:06.368Z,90.94
2019-02-06T07:59:13.237Z,90.36
2019-02-06T08:02:22.471Z,90.41
2019-02-06T08:05:29.468Z,90.53
2019-02-06T08:08:36.800Z,90.10
2019-02-06T08:11:43.718Z,89.84
2019-02-06T08:14:50.631Z,89.60
2019-02-06T08:17:57.634Z,89.59
2019-02-06T08:21:04.638Z,89.62
2019-02-06T08:24:11.612Z,89.37
2019-02-06T08:27:18.541Z,89.38
2019-02-06T08:30:36.826Z,89.37
2019-02-06T08:33:44.967Z,88.79
2019-02-06T08:36:53.019Z,88.39
2019-02-06T08:39:59.958Z,88.21
2019-02-06T08:43:07.217Z,87.79
2019-02-06T08:46:14.192Z,87.57
2019-02-06T08:49:21.384Z,87.62
2019-02-06T08:52:29.385Z,87.30
2019-02-06T08:55:38.566Z,87.29
2019-02-06T08:58:45.476Z,87.25
2019-02-06T09:01:52.352Z,86.57
2019-02-06T09:04:59.449Z,86.55
2019-02-06T09:08:07.156Z,86.16
2019-02-06T09:11:14.060Z,86.18
2019-02-06T09:14:22.331Z,85.73
2019-02-06T09:17:32.772Z,85.58
2019-02-06T09:20:39.681Z,85.66
2019-02-06T09:23:46.707Z,85.71
2019-02-06T09:26:55.320Z,84.97
2019-02-06T09:30:02.226Z,84.15
2019-02-06T09:33:09.149Z,84.58
2019-02-06T09:36:16.238Z,84.27
2019-02-06T09:39:23.260Z,83.66
2019-02-06T09:42:32.071Z,83.58
2019-02-06T09:45:38.947Z,83.16
2019-02-06T09:48:46.096Z,83.22
2019-02-06T09:51:54.063Z,82.78
2019-02-06T09:55:01.164Z,82.87
2019-02-06T09:58:09.347Z,82.49
2019-02-06T10:01:17.379Z,82.67
2019-02-06T10:04:24.336Z,83.09
2019-02-06T10:07:31.750Z,82.58
2019-02-06T10:10:39.239Z,82.19
2019-02-06T10:13:47.631Z,82.37
2019-02-06T10:16:54.722Z,81.62
2019-02-06T10:20:02.854Z,81.57
2019-02-06T10:23:12.279Z,81.47
2019-02-06T10:26:19.564Z,81.43
2019-02-06T10:29:26.510Z,80.64
2019-02-06T10:32:33.472Z,80.50
2019-02-06T10:35:42.177Z,80.93
2019-02-06T10:38:51.520Z,80.80
2019-02-06T10:41:58.460Z,80.26
2019-02-06T10:45:10.249Z,80.56
2019-02-06T10:48:18.332Z,80.15
2019-02-06T10:51:25.459Z,80.28
2019-02-06T10:54:32.513Z,80.29
2019-02-06T10:57:39.426Z,79.48
2019-02-06T11:00:53.694Z,79.13
2019-02-06T11:04:00.685Z,78.88
2019-02-06T11:07:08.292Z,78.13
2019-02-06T11:10:16.466Z,78.49
2019-02-06T11:13:23.659Z,77.62
2019-02-06T11:16:30.589Z,76.80
2019-02-06T11:19:38.359Z,77.33
2019-02-06T11:22:45.387Z,76.39
2019-02-06T11:25:52.472Z,76.83
2019-02-06T11:28:59.452Z,75.33
2019-02-06T11:32:06.601Z,75.80
2019-02-06T11:35:14.652Z,76.19
2019-02-06T11:38:21.687Z,76.50
2019-02-06T11:41:29.226Z,75.93
2019-02-06T11:44:37.545Z,75.91
2019-02-06T11:47:44.594Z,74.54
2019-02-06T11:50:51.583Z,73.83
2019-02-06T11:53:58.497Z,72.94
2019-02-06T11:57:08.364Z,73.59
2019-02-06T12:00:23.744Z,73.01
2019-02-06T12:03:31.328Z,73.05
2019-02-06T12:06:38.340Z,72.28
2019-02-06T12:09:45.381Z,72.24
2019-02-06T12:12:52.406Z,71.45
2019-02-06T12:16:01.542Z,70.32
2019-02-06T12:19:08.634Z,69.56
2019-02-06T12:22:15.601Z,70.07
2019-02-06T12:25:22.901Z,69.67
2019-02-06T12:28:29.845Z,69.50
2019-02-06T12:31:36.899Z,68.76
2019-02-06T12:34:44.134Z,69.42
2019-02-06T12:37:51.045Z,68.41
2019-02-06T12:40:58.727Z,67.41
2019-02-06T12:44:05.884Z,68.21
2019-02-06T12:47:12.776Z,68.64
2019-02-06T12:50:23.096Z,68.35
2019-02-06T12:53:30.039Z,68.90
2019-02-06T12:56:37.875Z,68.04
2019-02-06T12:59:44.934Z,68.19
2019-02-06T13:02:52.328Z,68.11
2019-02-06T13:05:59.714Z,67.72
2019-02-06T13:09:10.659Z,67.62
2019-02-06T13:12:17.685Z,67.08
2019-02-06T13:15:24.740Z,67.64
2019-02-06T13:18:32.088Z,67.32
2019-02-06T13:21:39.138Z,67.52
2019-02-06T13:24:46.121Z,67.84
2019-02-06T13:27:53.248Z,67.36
2019-02-06T13:31:01.470Z,66.94
2019-02-06T13:34:08.465Z,67.49
2019-02-06T13:37:15.425Z,67.68
2019-02-06T13:40:24.607Z,67.69
2019-02-06T13:43:32.546Z,67.77
2019-02-06T13:46:39.385Z,67.37
2019-02-06T13:49:46.954Z,67.26
2019-02-06T13:52:54.447Z,67.50
2019-02-06T13:56:01.521Z,67.62
2019-02-06T13:59:08.746Z,67.62
2019-02-06T14:02:15.694Z,68.30
2019-02-06T14:05:26.866Z,68.17
2019-02-06T14:08:34.583Z,67.82
2019-02-06T14:11:41.519Z,67.36
2019-02-06T14:14:48.751Z,67.24
2019-02-06T14:17:55.776Z,67.60
2019-02-06T14:21:02.726Z,68.55
2019-02-06T14:24:40.162Z,70.34
2019-02-06T14:29:03.679Z,68.11
2019-02-06T14:32:51.105Z,67.95
2019-02-06T14:37:19.217Z,68.20
2019-02-06T14:41:23.065Z,65.14
2019-02-06T14:45:17.907Z,67.46
2019-02-06T14:49:33.389Z,66.77
2019-02-06T14:53:39.632Z,66.42
2019-02-06T14:57:10.519Z,66.26
2019-02-06T15:00:59.274Z,66.59
2019-02-06T15:04:51.718Z,65.68
2019-02-06T15:08:56.645Z,65.48
2019-02-06T15:13:03.152Z,67.30
2019-02-06T15:17:03.089Z,68.45
2019-02-06T15:20:52.476Z,71.34
2019-02-06T15:25:06.279Z,71.64
2019-02-06T15:29:18.671Z,72.65
2019-02-06T15:33:20.901Z,73.31
2019-02-06T15:36:49.295Z,77.22
2019-02-06T15:40:40.410Z,75.25
2019-02-06T15:44:07.414Z,73.56
2019-02-06T15:47:51.939Z,75.30
2019-02-06T15:51:41.875Z,74.91
2019-02-06T15:56:17.659Z,73.59
2019-02-06T16:00:09.051Z,78.10
2019-02-06T16:04:15.903Z,75.01
2019-02-06T16:07:58.758Z,76.11
2019-02-06T16:11:51.693Z,76.12
2019-02-06T16:16:04.152Z,78.39
2019-02-06T16:20:05.189Z,78.46
2019-02-06T16:24:03.205Z,77.48
2019-02-06T16:27:26.196Z,77.35
2019-02-06T16:31:18.460Z,77.65
2019-02-06T16:35:36.397Z,79.39
2019-02-06T16:39:07.268Z,77.68
2019-02-06T16:43:04.425Z,79.50
2019-02-06T16:46:53.330Z,77.03
2019-02-06T16:50:37.845Z,77.76
2019-02-06T16:54:52.520Z,78.02
2019-02-06T16:59:05.456Z,77.97
2019-02-06T17:03:29.552Z,77.64
2019-02-06T17:07:28.524Z,79.19
2019-02-06T17:11:05.268Z,82.86
2019-02-06T17:15:28.907Z,81.25
2019-02-06T17:19:26.822Z,80.57
2019-02-06T17:23:14.633Z,83.30
2019-02-06T17:26:48.842Z,82.33
2019-02-06T17:30:45.396Z,84.16
2019-02-06T17:34:47.619Z,83.42
2019-02-06T17:39:11.804Z,82.56
2019-02-06T17:43:31.075Z,81.45
2019-02-06T17:47:43.698Z,82.72
2019-02-06T17:51:48.447Z,83.47
2019-02-06T17:55:22.233Z,82.77
2019-02-06T17:58:36.207Z,82.43
2019-02-06T18:01:55.401Z,82.97
2019-02-06T18:05:02.343Z,84.89
2019-02-06T18:08:09.591Z,84.91
2019-02-06T18:11:16.817Z,84.04
2019-02-06T18:14:23.990Z,83.68
2019-02-06T18:17:31.327Z,84.17
2019-02-06T18:20:38.354Z,82.98
2019-02-06T18:23:46.475Z,83.85
2019-02-06T18:26:53.886Z,84.26
2019-02-06T18:30:01.080Z,85.06
2019-02-06T18:33:08.365Z,82.33
2019-02-06T18:36:15.367Z,81.89
2019-02-06T18:39:22.490Z,82.35
2019-02-06T18:42:36.856Z,82.91
2019-02-06T18:45:38.196Z,83.08
2019-02-06T18:48:45.297Z,82.04
2019-02-06T18:51:52.577Z,82.54
2019-02-06T18:55:00.951Z,81.80
2019-02-06T18:58:11.214Z,81.59
2019-02-06T19:01:18.819Z,81.37
2019-02-06T19:04:36.384Z,80.85
2019-02-06T19:07:43.843Z,81.85
2019-02-06T19:10:50.875Z,82.91
2019-02-06T19:13:58.456Z,83.04
2019-02-06T19:17:07.766Z,81.85
2019-02-06T19:20:16.804Z,80.06
2019-02-06T19:23:23.692Z,81.96
2019-02-06T19:26:32.350Z,82.34
2019-02-06T19:29:40.964Z,82.96
2019-02-06T19:32:50.098Z,83.37
2019-02-06T19:35:58.227Z,83.06
2019-02-06T19:39:08.937Z,82.60
2019-02-06T19:42:16.013Z,84.06
2019-02-06T19:45:23.025Z,83.58
2019-02-06T19:48:30.145Z,82.20
2019-02-06T19:51:37.250Z,82.36
2019-02-06T19:54:46.188Z,79.51
2019-02-06T19:57:53.374Z,80.73
2019-02-06T20:01:00.564Z,82.66
2019-02-06T20:04:07.582Z,83.78
2019-02-06T20:07:14.937Z,81.44
2019-02-06T20:10:26.155Z,83.99
2019-02-06T20:13:33.198Z,82.64
2019-02-06T20:16:43.173Z,82.43
2019-02-06T20:19:51.664Z,83.43
2019-02-06T20:22:59.414Z,83.28
2019-02-06T20:26:06.564Z,83.93
2019-02-06T20:29:13.696Z,82.25
2019-02-06T20:32:20.768Z,82.66
2019-02-06T20:35:27.983Z,83.54
2019-02-06T20:38:35.800Z,83.61
2019-02-06T20:41:42.768Z,83.49
2019-02-06T20:44:49.839Z,81.61
2019-02-06T20:47:56.993Z,81.39
2019-02-06T20:51:04.142Z,82.71
2019-02-06T20:54:11.178Z,82.90
2019-02-06T20:57:18.526Z,82.68
2019-02-06T21:00:37.698Z,82.15
2019-02-06T21:03:44.731Z,83.12
2019-02-06T21:06:51.766Z,81.43
2019-02-06T21:09:58.659Z,79.04
2019-02-06T21:13:07.072Z,76.00
2019-02-06T21:16:14.361Z,77.27
2019-02-06T21:19:21.274Z,80.65
2019-02-06T21:22:28.674Z,81.82
2019-02-06T21:25:35.838Z,80.93
2019-02-06T21:28:42.869Z,81.06
2019-02-06T21:31:50.111Z,81.87
2019-02-06T21:34:57.073Z,79.92
2019-02-06T21:38:06.999Z,80.24
2019-02-06T21:41:16.851Z,81.49
2019-02-06T21:44:26.828Z,80.48
2019-02-06T21:47:33.782Z,81.25
2019-02-06T21:50:40.905Z,78.56
2019-02-06T21:53:49.034Z,74.06
2019-02-06T21:56:56.137Z,72.05
2019-02-06T22:00:07.612Z,73.97
2019-02-06T22:03:14.982Z,74.26
2019-02-06T22:06:22.036Z,71.62
2019-02-06T22:09:29.087Z,72.23
2019-02-06T22:12:36.206Z,71.09
2019-02-06T22:15:43.226Z,71.51
2019-02-06T22:18:50.521Z,70.60
2019-02-06T22:21:57.515Z,70.97
2019-02-06T22:25:05.021Z,70.92
2019-02-06T22:28:12.320Z,70.69
2019-02-06T22:31:19.302Z,70.77
2019-02-06T22:34:26.578Z,74.09
2019-02-06T22:37:34.679Z,74.99
2019-02-06T22:40:41.781Z,77.58
2019-02-06T22:43:49.502Z,75.86
2019-02-06T22:46:56.480Z,77.06
2019-02-06T22:50:05.680Z,77.37
2019-02-06T22:53:13.029Z,76.23
2019-02-06T22:56:20.248Z,77.96
2019-02-06T22:59:27.398Z,75.09
2019-02-06T23:02:34.637Z,75.41
2019-02-06T23:05:41.885Z,78.66
2019-02-06T23:08:49.036Z,77.97
2019-02-06T23:11:56.106Z,79.82
2019-02-06T23:15:03.372Z,79.16
2019-02-06T23:18:10.511Z,80.47
2019-02-06T23:21:17.484Z,79.21
2019-02-06T23:24:25.093Z,80.70
2019-02-06T23:27:32.484Z,79.83
2019-02-06T23:30:39.961Z,80.97
2019-02-06T23:33:46.935Z,79.86
2019-02-06T23:36:55.677Z,79.44
2019-02-06T23:40:02.641Z,79.41
2019-02-06T23:43:09.879Z,78.39
2019-02-06T23:46:16.912Z,78.89
2019-02-06T23:49:24.072Z,76.58
2019-02-06T23:52:31.422Z,78.75
2019-02-06T23:55:38.524Z,78.04
2019-02-06T23:58:45.564Z,79.29
